Time;durP1;ratioP1;P1;durP2;ratioP2;P2;SDS_P1;SDS_P2;PMS_P1;PMS_P2;Temp;Humidity;BMP_temperature;BMP_pressure;BME280_temperature;BME280_humidity;BME280_pressure;Samples;Min_cycle;Max_cycle;Signal;HPM_P1;HPM_P2
2024/02/12 00:00:44;;;;;;;17.17;7.43;;;8.50;99.90;;;;;;5037235;28;20025;-55
2024/02/12 00:03:10;;;;;;;18.05;6.88;;;8.40;99.90;;;;;;5041604;28;20504;-54
2024/02/12 00:05:36;;;;;;;12.55;6.32;;;8.40;99.90;;;;;;5033850;28;20025;-53
2024/02/12 00:08:09;;;;;;;19.45;7.28;;;8.40;99.90;;;;;;5032354;28;20025;-53
2024/02/12 00:10:34;;;;;;;15.52;7.70;;;8.30;99.90;;;;;;5033663;28;20494;-54
2024/02/12 00:13:00;;;;;;;23.45;8.63;;;8.40;99.90;;;;;;5033549;28;20033;-54
2024/02/12 00:15:27;;;;;;;22.90;8.55;;;8.30;99.90;;;;;;5037517;28;20492;-54
2024/02/12 00:17:52;;;;;;;29.85;8.75;;;8.30;99.90;;;;;;5034707;28;20481;-52
2024/02/12 00:20:18;;;;;;;23.67;7.72;;;8.30;99.90;;;;;;5036388;28;20163;-54
2024/02/12 00:22:44;;;;;;;23.23;8.95;;;8.30;99.90;;;;;;5047252;28;20060;-53
2024/02/12 00:25:13;;;;;;;20.33;8.63;;;8.40;99.90;;;;;;5031989;28;20032;-53
2024/02/12 00:27:39;;;;;;;23.50;8.63;;;8.40;99.90;;;;;;5052546;28;20029;-55
2024/02/12 00:30:08;;;;;;;16.20;8.52;;;8.30;99.90;;;;;;5052374;28;20131;-54
2024/02/12 00:32:36;;;;;;;23.67;9.20;;;8.30;99.90;;;;;;5049637;28;20374;-52
2024/02/12 00:35:03;;;;;;;;;;;8.30;99.90;;;;;;5032347;28;20018;-53
2024/02/12 00:37:29;;;;;;;14.45;7.15;;;8.30;99.90;;;;;;5032846;28;19974;-54
2024/02/12 00:39:55;;;;;;;15.30;8.02;;;8.40;99.90;;;;;;5032964;28;20025;-54
2024/02/12 00:42:23;;;;;;;19.80;8.35;;;8.40;99.90;;;;;;5033808;28;20474;-54
2024/02/12 00:44:49;;;;;;;17.75;7.45;;;8.40;99.90;;;;;;5032745;28;20036;-53
2024/02/12 00:47:16;;;;;;;18.23;8.48;;;8.40;99.90;;;;;;5034092;28;20029;-54
2024/02/12 00:49:43;;;;;;;19.05;8.93;;;8.40;99.90;;;;;;5031654;28;20033;-54
2024/02/12 00:52:12;;;;;;;26.65;8.35;;;8.40;99.90;;;;;;5032942;28;20112;-57
2024/02/12 00:54:41;;;;;;;22.30;9.57;;;8.40;99.90;;;;;;5032780;28;20065;-64
2024/02/12 00:57:07;;;;;;;21.13;8.38;;;8.50;99.90;;;;;;5033137;28;20505;-54
2024/02/12 00:59:38;;;;;;;18.48;8.82;;;8.50;99.90;;;;;;5033280;28;20555;-54
2024/02/12 01:02:05;;;;;;;15.05;7.82;;;8.50;99.90;;;;;;5032861;28;20485;-56
2024/02/12 01:04:31;;;;;;;19.98;8.48;;;8.50;99.90;;;;;;5032557;28;20021;-51
2024/02/12 01:06:59;;;;;;;22.88;9.25;;;8.50;99.90;;;;;;5032814;28;20386;-54
2024/02/12 01:09:26;;;;;;;21.92;9.55;;;8.50;99.90;;;;;;5039037;28;20059;-54
2024/02/12 01:11:51;;;;;;;17.45;8.93;;;8.50;99.90;;;;;;5052490;28;20032;-54
2024/02/12 01:14:19;;;;;;;23.38;10.13;;;8.50;99.90;;;;;;5045820;28;20018;-54
2024/02/12 01:16:45;;;;;;;21.52;9.38;;;8.50;99.90;;;;;;5035245;28;20037;-54
2024/02/12 01:19:11;;;;;;;19.30;8.65;;;8.50;99.90;;;;;;5048577;28;20043;-54
2024/02/12 01:21:37;;;;;;;24.77;9.15;;;8.50;99.90;;;;;;5046631;28;20105;-54
2024/02/12 01:24:04;;;;;;;18.17;8.70;;;8.50;99.90;;;;;;5048552;28;20052;-56
2024/02/12 01:26:36;;;;;;;24.10;9.85;;;8.50;99.90;;;;;;5052285;28;20435;-52
2024/02/12 01:29:04;;;;;;;17.30;9.00;;;8.60;99.90;;;;;;5045496;28;20036;-56
2024/02/12 01:31:29;;;;;;;20.85;8.93;;;8.60;99.90;;;;;;5032612;28;20022;-51
2024/02/12 01:33:55;;;;;;;21.85;9.90;;;8.60;99.90;;;;;;5045716;28;20486;-53
2024/02/12 01:36:21;;;;;;;20.92;10.00;;;8.60;99.90;;;;;;5051179;28;20482;-54
2024/02/12 01:38:47;;;;;;;23.08;9.15;;;8.60;99.90;;;;;;5047293;28;20034;-53
2024/02/12 01:41:12;;;;;;;17.60;9.40;;;8.60;99.90;;;;;;5033240;28;20470;-55
2024/02/12 01:43:41;;;;;;;20.77;10.13;;;8.60;99.90;;;;;;5032642;28;20025;-51
2024/02/12 01:46:07;;;;;;;27.77;10.60;;;8.70;99.90;;;;;;5044184;28;20057;-53
2024/02/12 01:48:35;;;;;;;23.10;9.85;;;8.70;99.90;;;;;;5052268;28;20084;-53
2024/02/12 01:51:06;;;;;;;23.60;9.98;;;8.60;99.90;;;;;;5051524;28;20021;-44
2024/02/12 01:53:39;;;;;;;26.90;10.30;;;8.60;99.90;;;;;;5051492;28;20025;-39
2024/02/12 01:56:11;;;;;;;28.48;9.60;;;8.60;99.90;;;;;;5052263;28;20366;-38
2024/02/12 01:58:40;;;;;;;23.88;9.70;;;8.60;99.90;;;;;;5050021;28;20434;-38
2024/02/12 02:01:07;;;;;;;25.83;9.75;;;8.50;99.90;;;;;;5032237;28;20029;-39
2024/02/12 02:03:33;;;;;;;14.60;8.43;;;8.50;99.90;;;;;;5031741;28;20033;-38
2024/02/12 02:05:59;;;;;;;25.92;10.00;;;8.50;99.90;;;;;;5030951;28;20034;-59
2024/02/12 02:08:51;;;;;;;16.98;8.57;;;8.50;99.90;;;;;;5032517;28;20067;-38
2024/02/12 02:11:17;;;;;;;23.40;9.25;;;8.50;99.90;;;;;;5030574;28;20413;-39
2024/02/12 02:13:43;;;;;;;27.77;10.25;;;8.40;99.90;;;;;;5030766;28;20030;-42
2024/02/12 02:16:15;;;;;;;20.30;8.60;;;8.40;99.90;;;;;;5032246;28;20382;-68
2024/02/12 02:18:45;;;;;;;29.17;10.45;;;8.40;99.90;;;;;;5035935;28;20437;-49
2024/02/12 02:21:12;;;;;;;25.80;9.82;;;8.30;99.90;;;;;;5035612;28;20061;-38
2024/02/12 02:23:40;;;;;;;16.42;9.00;;;8.30;99.90;;;;;;5044292;28;20022;-41
2024/02/12 02:26:05;;;;;;;15.25;6.13;;;8.30;99.90;;;;;;5037174;28;20466;-39
2024/02/12 02:28:31;;;;;;;18.60;9.55;;;8.20;99.90;;;;;;5035839;28;20101;-38
2024/02/12 02:30:57;;;;;;;22.10;9.18;;;8.20;99.90;;;;;;5035319;28;20044;-45
2024/02/12 02:33:22;;;;;;;18.40;9.23;;;8.20;99.90;;;;;;5035613;28;20438;-38
2024/02/12 02:35:48;;;;;;;18.60;9.00;;;8.20;99.90;;;;;;5035249;28;20048;-38
2024/02/12 02:38:15;;;;;;;23.85;9.93;;;8.20;99.90;;;;;;5039614;28;20017;-38
2024/02/12 02:40:42;;;;;;;26.13;9.43;;;8.20;99.90;;;;;;5035709;28;20482;-38
2024/02/12 02:43:08;;;;;;;22.67;9.65;;;8.20;99.90;;;;;;5035790;28;20036;-40
2024/02/12 02:45:34;;;;;;;24.52;9.65;;;8.30;99.90;;;;;;5035001;28;20025;-38
2024/02/12 02:48:01;;;;;;;25.23;9.75;;;8.30;99.90;;;;;;5035253;28;20095;-38
2024/02/12 02:50:29;;;;;;;24.88;10.10;;;8.20;99.90;;;;;;5033636;28;20021;-39
2024/02/12 02:52:55;;;;;;;21.10;9.20;;;8.20;99.90;;;;;;5033893;28;20393;-40
2024/02/12 02:55:22;;;;;;;24.55;10.82;;;8.20;99.90;;;;;;5034919;28;20045;-41
2024/02/12 02:57:48;;;;;;;21.67;9.00;;;8.20;99.90;;;;;;5054479;28;20017;-40
2024/02/12 03:00:15;;;;;;;23.80;8.70;;;8.20;99.90;;;;;;5021135;28;20430;-49
2024/02/12 03:02:44;;;;;;;28.90;9.73;;;8.20;99.90;;;;;;5034889;28;20033;-53
2024/02/12 03:05:14;;;;;;;19.98;10.25;;;8.20;99.90;;;;;;5034927;28;20059;-54
2024/02/12 03:07:47;;;;;;;24.05;10.15;;;8.20;99.90;;;;;;5034538;28;20029;-54
2024/02/12 03:10:14;;;;;;;26.35;11.13;;;8.20;99.90;;;;;;5035148;28;20049;-54
2024/02/12 03:12:41;;;;;;;21.45;9.30;;;8.20;99.90;;;;;;5034531;28;20444;-54
2024/02/12 03:15:11;;;;;;;22.83;9.55;;;8.10;99.90;;;;;;5033190;28;20117;-53
2024/02/12 03:17:40;;;;;;;23.80;9.75;;;8.10;99.90;;;;;;5053887;28;20017;-52
2024/02/12 03:20:09;;;;;;;21.88;10.07;;;8.00;99.90;;;;;;5036566;28;20026;-62
2024/02/12 03:22:35;;;;;;;27.75;9.60;;;8.00;99.90;;;;;;5034439;28;20585;-55
2024/02/12 03:25:02;;;;;;;23.40;9.20;;;8.00;99.90;;;;;;5034691;28;20108;-53
2024/02/12 03:27:28;;;;;;;21.55;9.13;;;8.00;99.90;;;;;;5033206;28;20029;-55
2024/02/12 03:29:53;;;;;;;30.33;11.48;;;7.90;99.90;;;;;;5034233;28;20081;-53
2024/02/12 03:32:19;;;;;;;26.98;10.30;;;7.80;99.90;;;;;;5034970;28;20033;-43
2024/02/12 03:34:45;;;;;;;32.28;10.77;;;7.80;99.90;;;;;;5034598;28;20505;-39
2024/02/12 03:37:13;;;;;;;26.50;9.93;;;7.70;99.90;;;;;;5034541;28;20045;-39
2024/02/12 03:39:39;;;;;;;27.27;9.90;;;7.70;99.90;;;;;;5046871;28;20029;-38
2024/02/12 03:42:08;;;;;;;25.38;10.70;;;7.70;99.90;;;;;;5053750;28;20059;-38
2024/02/12 03:44:34;;;;;;;30.08;10.82;;;7.70;99.90;;;;;;5034411;28;20520;-39
2024/02/12 03:47:00;;;;;;;22.95;10.23;;;7.60;99.90;;;;;;5034280;28;20029;-42
2024/02/12 04:00:24;;;;;;;24.52;10.32;;;7.70;99.90;;;;;;5034043;28;20049;-40
2024/02/12 04:02:50;;;;;;;26.25;9.25;;;7.70;99.90;;;;;;5033630;28;20032;-40
2024/02/12 04:05:17;;;;;;;21.52;8.95;;;7.70;99.90;;;;;;5033776;28;20022;-38
2024/02/12 04:07:43;;;;;;;29.45;10.10;;;7.70;99.90;;;;;;5036263;28;20021;-39
2024/02/12 04:10:12;;;;;;;24.77;10.05;;;7.60;99.90;;;;;;5033431;28;20048;-55
2024/02/12 04:12:38;;;;;;;29.80;11.23;;;7.50;99.90;;;;;;5033237;28;20052;-54
2024/02/12 04:15:08;;;;;;;26.77;9.90;;;7.50;99.90;;;;;;5033571;28;20360;-51
2024/02/12 04:17:34;;;;;;;22.90;9.15;;;7.40;99.90;;;;;;5033530;28;20504;-54
2024/02/12 04:20:01;;;;;;;23.75;9.02;;;7.40;99.90;;;;;;5033521;28;20029;-53
2024/02/12 04:22:26;;;;;;;24.25;9.93;;;7.30;99.90;;;;;;5036792;28;20021;-50
2024/02/12 04:24:54;;;;;;;25.63;10.32;;;7.30;99.90;;;;;;5052261;28;20426;-54
2024/02/12 04:27:20;;;;;;;25.67;9.90;;;7.30;99.90;;;;;;5053562;28;20021;-55
2024/02/12 04:29:46;;;;;;;24.90;9.10;;;7.30;99.90;;;;;;5053144;28;20545;-54
2024/02/12 04:32:11;;;;;;;29.98;10.57;;;7.30;99.90;;;;;;5052369;28;20025;-53
2024/02/12 04:34:41;;;;;;;29.90;10.65;;;7.40;99.90;;;;;;5034392;28;20467;-51
2024/02/12 04:37:08;;;;;;;30.42;11.13;;;7.50;99.90;;;;;;5033428;28;20500;-54
2024/02/12 04:39:37;;;;;;;31.20;10.07;;;7.50;99.90;;;;;;5031283;28;20030;-54
2024/02/12 04:42:04;;;;;;;23.00;9.40;;;7.50;99.90;;;;;;5033471;28;20478;-51
2024/02/12 04:44:30;;;;;;;25.48;9.70;;;7.60;99.90;;;;;;5033014;28;20068;-54
2024/02/12 04:46:58;;;;;;;29.58;10.70;;;7.60;99.90;;;;;;5033049;28;20033;-53
2024/02/12 04:49:24;;;;;;;26.58;11.13;;;7.60;99.90;;;;;;5032714;28;20025;-54
2024/02/12 04:51:51;;;;;;;26.13;10.30;;;7.60;99.90;;;;;;5032972;28;20036;-54
2024/02/12 04:54:16;;;;;;;26.70;10.80;;;7.60;99.90;;;;;;5033225;28;20060;-56
2024/02/12 04:56:42;;;;;;;25.23;10.55;;;7.60;99.90;;;;;;5032992;28;20026;-53
2024/02/12 04:59:15;;;;;;;30.23;11.60;;;7.70;99.90;;;;;;5049895;28;20031;-54
2024/02/12 05:01:41;;;;;;;33.78;10.35;;;7.70;99.90;;;;;;5037679;28;20025;-54
2024/02/12 05:04:07;;;;;;;33.88;10.88;;;7.70;99.90;;;;;;5031483;28;20489;-54
2024/02/12 05:06:33;;;;;;;24.10;10.00;;;7.70;99.90;;;;;;5033011;28;20475;-49
2024/02/12 05:08:59;;;;;;;24.98;10.55;;;7.70;99.90;;;;;;5035411;28;20416;-54
2024/02/12 05:11:26;;;;;;;24.10;9.20;;;7.60;99.90;;;;;;5052448;28;20517;-39
2024/02/12 05:13:54;;;;;;;30.40;10.68;;;7.60;99.90;;;;;;5052819;28;20079;-38
2024/02/12 05:16:29;;;;;;;29.55;11.48;;;7.60;99.90;;;;;;5035639;28;20518;-39
2024/02/12 05:24:44;;;;;;;27.67;10.95;;;7.70;99.90;;;;;;5050053;28;20405;-38
2024/02/12 05:27:09;;;;;;;33.20;10.27;;;7.80;99.90;;;;;;5049508;28;20108;-38
2024/02/12 05:29:37;;;;;;;34.05;10.07;;;7.80;99.90;;;;;;5032463;28;20030;-39
2024/02/12 05:32:04;;;;;;;33.60;10.80;;;7.90;99.90;;;;;;5033320;28;20433;-39
2024/02/12 05:34:29;;;;;;;24.30;11.30;;;7.90;99.90;;;;;;5031245;28;20029;-38
2024/02/12 05:36:55;;;;;;;24.90;10.23;;;7.90;99.90;;;;;;5031097;28;20421;-48
2024/02/12 05:39:21;;;;;;;39.08;11.35;;;7.90;99.90;;;;;;5052071;28;20036;-38
2024/02/12 05:41:47;;;;;;;35.83;11.65;;;8.00;99.90;;;;;;5052263;28;20374;-39
2024/02/12 05:44:14;;;;;;;27.55;10.82;;;8.00;99.90;;;;;;5052299;28;20095;-38
2024/02/12 05:46:39;;;;;;;26.00;10.27;;;8.00;99.90;;;;;;5052302;28;20029;-39
2024/02/12 05:49:06;;;;;;;23.15;10.68;;;8.00;99.90;;;;;;5049623;28;20033;-39
2024/02/12 05:51:33;;;;;;;30.33;10.75;;;8.00;99.90;;;;;;5033246;28;20061;-38
2024/02/12 05:54:01;;;;;;;27.63;11.05;;;8.10;99.90;;;;;;5041978;28;20024;-38
2024/02/12 05:56:27;;;;;;;32.03;11.48;;;8.00;99.90;;;;;;5056083;28;20541;-38
2024/02/12 05:58:53;;;;;;;30.65;10.40;;;8.10;99.90;;;;;;5055198;28;20108;-39
2024/02/12 06:01:19;;;;;;;21.48;10.27;;;8.10;99.90;;;;;;5055944;28;20032;-39
2024/02/12 06:03:45;;;;;;;26.67;10.13;;;8.00;99.90;;;;;;5056040;28;20496;-39
2024/02/12 06:06:12;;;;;;;22.30;10.10;;;8.00;99.90;;;;;;5050982;28;20402;-37
2024/02/12 06:08:38;;;;;;;27.10;9.80;;;8.00;99.90;;;;;;5055114;28;20028;-39
2024/02/12 06:11:04;;;;;;;23.98;10.75;;;7.90;99.90;;;;;;5034238;28;20470;-38
2024/02/12 06:13:29;;;;;;;25.90;9.57;;;7.90;99.90;;;;;;5035770;28;20394;-39
2024/02/12 06:15:55;;;;;;;24.98;10.27;;;7.90;99.90;;;;;;5035866;28;20474;-38
2024/02/12 06:18:21;;;;;;;22.58;10.40;;;7.90;99.90;;;;;;5035997;28;20100;-41
2024/02/12 06:20:48;;;;;;;26.63;10.07;;;7.90;99.90;;;;;;5034388;28;20075;-50
2024/02/12 06:23:14;;;;;;;32.50;10.20;;;7.90;99.90;;;;;;5053030;28;20424;-39
2024/02/12 06:25:40;;;;;;;24.40;9.98;;;7.90;99.90;;;;;;5055610;28;20620;-38
2024/02/12 06:28:09;;;;;;;30.00;9.70;;;7.90;99.90;;;;;;5055530;28;20029;-38
2024/02/12 06:30:35;;;;;;;29.35;10.05;;;7.90;99.90;;;;;;5055472;28;20052;-42
2024/02/12 06:33:01;;;;;;;23.77;9.18;;;7.90;99.90;;;;;;5054595;28;20025;-38
2024/02/12 06:35:29;;;;;;;27.27;9.05;;;7.90;99.90;;;;;;5055241;28;20392;-37
2024/02/12 06:37:55;;;;;;;32.72;10.43;;;7.90;99.90;;;;;;5039620;28;20037;-38
2024/02/12 06:40:21;;;;;;;22.05;8.85;;;8.00;99.90;;;;;;5034751;28;20039;-38
2024/02/12 06:42:47;;;;;;;21.25;9.02;;;7.90;99.90;;;;;;5035131;28;20057;-37
2024/02/12 06:45:16;;;;;;;19.95;8.88;;;7.90;99.90;;;;;;5035041;28;20025;-37
2024/02/12 06:47:43;;;;;;;22.92;8.65;;;7.90;99.90;;;;;;5033934;28;20037;-53
2024/02/12 06:50:09;;;;;;;22.00;9.27;;;7.80;99.90;;;;;;5034976;28;20076;-54
2024/02/12 06:52:35;;;;;;;23.85;9.20;;;7.80;99.90;;;;;;5034985;28;20557;-53
2024/02/12 06:55:01;;;;;;;22.83;8.20;;;7.80;99.90;;;;;;5049910;28;20064;-53
2024/02/12 06:57:26;;;;;;;30.25;8.98;;;7.80;99.90;;;;;;5044912;28;20025;-54
2024/02/12 06:59:52;;;;;;;20.10;8.32;;;7.70;99.90;;;;;;5034894;28;20427;-51
2024/02/12 07:02:19;;;;;;;22.80;8.23;;;7.70;99.90;;;;;;5034506;28;20497;-53
2024/02/12 07:04:47;;;;;;;19.25;8.18;;;7.70;99.90;;;;;;5034678;28;20468;-56
2024/02/12 07:07:13;;;;;;;19.10;9.23;;;7.60;99.90;;;;;;5040065;28;20377;-48
2024/02/12 07:09:38;;;;;;;19.98;7.43;;;7.70;99.90;;;;;;5054405;28;20041;-38
2024/02/12 07:12:06;;;;;;;22.33;8.82;;;7.60;99.90;;;;;;5054647;28;20440;-38
2024/02/12 07:14:32;;;;;;;16.60;7.65;;;7.60;99.90;;;;;;5053046;28;20095;-39
2024/02/12 07:16:58;;;;;;;19.75;7.47;;;7.60;99.90;;;;;;5054470;28;20022;-40
2024/02/12 07:19:23;;;;;;;20.30;7.63;;;7.60;99.90;;;;;;5054484;28;20033;-64
2024/02/12 07:21:49;;;;;;;15.38;6.90;;;7.60;99.90;;;;;;5041392;28;20048;-39
2024/02/12 07:24:15;;;;;;;20.83;7.65;;;7.60;99.90;;;;;;5034198;28;20120;-40
2024/02/12 07:26:42;;;;;;;19.77;7.63;;;7.60;99.90;;;;;;5034110;28;20457;-53
2024/02/12 07:29:08;;;;;;;17.80;5.90;;;7.60;99.90;;;;;;5049302;28;20461;-51
2024/02/12 07:31:35;;;;;;;19.70;8.07;;;7.50;99.90;;;;;;5038390;28;20021;-52
2024/02/12 07:34:03;;;;;;;20.63;7.88;;;7.50;99.90;;;;;;5034375;28;20017;-54
2024/02/12 07:36:28;;;;;;;16.35;7.38;;;7.50;99.90;;;;;;5034172;28;20017;-53
2024/02/12 07:38:54;;;;;;;15.73;7.43;;;7.50;99.90;;;;;;5034026;28;20052;-53
2024/02/12 07:41:20;;;;;;;17.98;6.90;;;7.50;99.90;;;;;;5034351;28;20462;-37
2024/02/12 07:43:46;;;;;;;15.10;6.65;;;7.50;99.90;;;;;;5053449;28;20070;-38
2024/02/12 07:46:14;;;;;;;20.67;7.47;;;7.50;99.90;;;;;;5048256;28;20108;-41
2024/02/12 07:48:41;;;;;;;51.88;9.10;;;7.50;99.90;;;;;;5034442;28;20298;-40
2024/02/12 07:51:07;;;;;;;23.05;7.47;;;7.50;99.90;;;;;;5033776;28;20083;-48
2024/02/12 07:53:33;;;;;;;16.23;6.32;;;7.60;99.90;;;;;;5036418;28;20111;-38
2024/02/12 07:55:58;;;;;;;13.38;5.90;;;7.60;99.90;;;;;;5049968;28;20159;-40
2024/02/12 07:58:27;;;;;;;13.07;6.50;;;7.60;99.90;;;;;;5033756;28;20502;-38
2024/02/12 08:00:52;;;;;;;23.10;7.07;;;7.70;99.90;;;;;;5033849;28;20069;-38
2024/02/12 08:03:19;;;;;;;17.30;5.95;;;7.70;99.90;;;;;;5036218;28;20485;-39
2024/02/12 08:05:49;;;;;;;18.00;6.82;;;7.70;99.90;;;;;;5033841;28;20033;-38
2024/02/12 08:08:16;;;;;;;14.50;6.20;;;7.70;99.90;;;;;;5034705;28;20022;-38
2024/02/12 08:10:42;;;;;;;12.25;5.80;;;7.80;99.90;;;;;;5033204;28;20052;-38
2024/02/12 08:13:08;;;;;;;18.02;5.85;;;7.80;99.90;;;;;;5040213;28;20462;-37
2024/02/12 08:15:35;;;;;;;20.60;7.00;;;7.80;99.90;;;;;;5052316;28;20494;-38
2024/02/12 08:18:03;;;;;;;15.20;6.57;;;7.80;99.90;;;;;;5033451;28;20385;-60
2024/02/12 08:20:29;;;;;;;11.02;6.28;;;7.80;99.90;;;;;;5033514;28;20151;-45
2024/02/12 08:22:55;;;;;;;17.35;5.78;;;7.80;99.90;;;;;;5037571;28;20121;-47
2024/02/12 08:25:21;;;;;;;19.45;7.00;;;7.80;99.90;;;;;;5033100;28;20061;-42
2024/02/12 08:27:47;;;;;;;14.07;6.78;;;7.80;99.90;;;;;;5036673;28;20063;-38
2024/02/12 08:30:14;;;;;;;13.35;7.00;;;7.90;99.90;;;;;;5033113;28;20036;-39
2024/02/12 08:32:40;;;;;;;20.67;7.38;;;8.00;99.90;;;;;;5033273;28;20433;-39
2024/02/12 08:35:07;;;;;;;14.25;6.75;;;8.20;99.90;;;;;;5033160;28;20101;-38
2024/02/12 08:37:34;;;;;;;22.52;7.63;;;8.30;99.90;;;;;;5050447;28;20029;-62
2024/02/12 08:40:00;;;;;;;18.45;7.85;;;8.30;99.90;;;;;;5052198;28;20478;-54
2024/02/12 08:42:26;;;;;;;16.77;7.65;;;8.30;99.90;;;;;;5052990;28;20032;-54
2024/02/12 08:44:51;;;;;;;22.55;7.70;;;8.40;99.90;;;;;;5045595;28;20390;-50
2024/02/12 08:47:17;;;;;;;15.80;7.18;;;8.40;99.90;;;;;;5033296;28;20025;-53
2024/02/12 08:49:45;;;;;;;19.00;7.18;;;8.50;99.90;;;;;;5033191;28;20466;-53
2024/02/12 08:52:11;;;;;;;26.70;8.57;;;8.60;99.90;;;;;;5034776;28;20009;-53
2024/02/12 08:54:37;;;;;;;21.80;8.63;;;8.60;99.90;;;;;;5043331;28;20028;-54
2024/02/12 08:57:21;;;;;;;19.85;7.95;;;8.80;99.90;;;;;;5047895;28;20020;-52
2024/02/12 08:59:49;;;;;;;20.25;7.53;;;8.90;99.90;;;;;;5052787;28;20021;-53
2024/02/12 09:02:14;;;;;;;18.65;7.10;;;9.00;99.90;;;;;;5052216;28;20043;-53
2024/02/12 09:04:42;;;;;;;17.10;8.02;;;9.10;99.90;;;;;;5043574;28;20564;-55
2024/02/12 09:07:09;;;;;;;21.20;8.00;;;9.20;99.90;;;;;;5050761;28;20029;-54
2024/02/12 09:09:35;;;;;;;17.48;7.50;;;9.20;99.90;;;;;;5046975;28;20361;-54
2024/02/12 09:12:01;;;;;;;19.40;8.02;;;9.20;99.90;;;;;;5032616;28;20421;-53
2024/02/12 09:14:26;;;;;;;14.18;7.50;;;9.30;99.90;;;;;;5033063;28;20075;-47
2024/02/12 09:16:52;;;;;;;23.45;9.15;;;9.30;99.90;;;;;;5038168;28;20033;-55
2024/02/12 09:19:18;;;;;;;16.90;7.78;;;9.30;99.90;;;;;;5032715;28;20049;-52
2024/02/12 09:21:44;;;;;;;18.90;7.50;;;9.30;99.90;;;;;;5039178;28;20471;-54
2024/02/12 09:24:11;;;;;;;22.63;8.68;;;9.40;99.90;;;;;;5032696;28;20032;-70
2024/02/12 09:26:37;;;;;;;27.00;9.87;;;9.50;99.90;;;;;;5034691;28;20026;-54
2024/02/12 09:29:03;;;;;;;17.88;7.70;;;9.60;99.90;;;;;;5036994;28;20024;-39
2024/02/12 09:31:33;;;;;;;20.25;7.88;;;9.80;99.90;;;;;;5040991;28;20025;-40
2024/02/12 09:34:02;;;;;;;16.98;7.28;;;9.80;99.90;;;;;;5037454;28;20084;-37
2024/02/12 09:36:30;;;;;;;22.17;7.65;;;9.90;99.90;;;;;;5045331;28;20550;-39
2024/02/12 09:38:56;;;;;;;16.70;5.65;;;10.00;99.90;;;;;;5046146;28;20501;-39
2024/02/12 09:41:28;;;;;;;19.05;8.35;;;10.00;99.90;;;;;;5036664;28;20058;-40
2024/02/12 09:43:55;;;;;;;17.98;7.90;;;10.00;99.90;;;;;;5053874;28;20036;-39
2024/02/12 09:46:21;;;;;;;15.63;7.47;;;9.90;99.90;;;;;;5052704;28;20033;-39
2024/02/12 09:48:51;;;;;;;19.75;7.57;;;10.00;99.90;;;;;;5049945;28;20087;-42
2024/02/12 09:51:19;;;;;;;22.27;6.15;;;10.10;99.90;;;;;;5050151;28;20030;-41
2024/02/12 09:53:47;;;;;;;17.92;6.82;;;10.20;99.90;;;;;;5048849;28;20032;-39
2024/02/12 09:56:14;;;;;;;16.52;7.32;;;10.30;99.90;;;;;;5043829;28;20025;-39
2024/02/12 09:58:40;;;;;;;12.07;4.30;;;10.30;99.90;;;;;;5042631;28;20033;-37
2024/02/12 10:01:06;;;;;;;17.73;5.97;;;10.30;99.90;;;;;;5034004;28;20032;-53
2024/02/12 10:03:34;;;;;;;11.23;5.38;;;10.30;99.90;;;;;;5042019;28;20120;-46
2024/02/12 10:06:00;;;;;;;7.68;4.78;;;10.40;99.90;;;;;;5050597;28;20022;-54
2024/02/12 10:08:27;;;;;;;13.65;5.35;;;10.30;99.90;;;;;;5035508;28;20035;-54
2024/02/12 10:10:53;;;;;;;12.95;4.38;;;10.30;99.90;;;;;;5040199;28;20051;-52
2024/02/12 10:13:20;;;;;;;10.23;4.47;;;10.50;99.90;;;;;;5056074;28;20466;-54
2024/02/12 10:15:47;;;;;;;14.65;4.57;;;10.60;99.90;;;;;;5048053;28;20512;-54
2024/02/12 10:18:15;;;;;;;6.97;4.38;;;10.50;99.90;;;;;;5036014;28;20014;-57
2024/02/12 10:20:42;;;;;;;13.55;4.80;;;10.60;99.90;;;;;;5045493;28;20492;-53
2024/02/12 10:23:09;;;;;;;7.60;4.65;;;10.60;99.90;;;;;;5055515;28;20029;-54
2024/02/12 10:25:43;;;;;;;14.82;6.10;;;10.60;99.90;;;;;;5055643;28;20040;-53
2024/02/12 10:28:09;;;;;;;11.40;4.47;;;10.60;99.90;;;;;;5041107;28;20032;-52
2024/02/12 10:30:35;;;;;;;9.55;4.53;;;10.50;99.90;;;;;;5035638;28;20027;-54
2024/02/12 10:33:05;;;;;;;11.02;4.18;;;10.50;99.90;;;;;;5046232;28;20445;-55
2024/02/12 10:35:33;;;;;;;11.52;4.80;;;10.60;99.90;;;;;;5055348;28;20021;-61
2024/02/12 10:37:59;;;;;;;9.40;4.25;;;10.70;99.90;;;;;;5054600;28;20013;-54
2024/02/12 10:40:32;;;;;;;8.23;4.45;;;10.80;99.90;;;;;;5053845;28;20035;-55
2024/02/12 10:43:05;;;;;;;9.50;4.28;;;10.80;99.90;;;;;;5055221;28;20541;-54
2024/02/12 10:45:32;;;;;;;9.95;3.72;;;10.90;99.90;;;;;;5037693;28;20032;-52
2024/02/12 10:47:58;;;;;;;11.23;3.08;;;11.00;99.90;;;;;;5055431;28;20021;-54
2024/02/12 10:50:26;;;;;;;6.95;3.35;;;11.00;99.90;;;;;;5054981;28;20094;-50
2024/02/12 10:52:53;;;;;;;5.20;3.45;;;11.00;99.90;;;;;;5054970;28;20481;-52
2024/02/12 10:55:19;;;;;;;5.45;2.97;;;11.00;99.90;;;;;;5055085;28;20032;-41
2024/02/12 10:57:46;;;;;;;9.52;2.75;;;11.00;99.90;;;;;;5055009;28;20478;-38
2024/02/12 11:00:26;;;;;;;5.68;2.70;;;11.00;99.90;;;;;;5054815;28;20027;-39
2024/02/12 11:02:55;;;;;;;21.92;2.67;;;11.00;99.90;;;;;;5054248;28;20111;-38
2024/02/12 11:05:20;;;;;;;5.00;2.50;;;11.20;99.90;;;;;;5054823;28;20484;-38
2024/02/12 11:07:47;;;;;;;4.35;2.22;;;11.40;99.90;;;;;;5054728;28;20028;-38
2024/02/12 11:10:19;;;;;;;3.17;2.00;;;11.70;99.90;;;;;;5038223;28;20517;-38
2024/02/12 11:12:48;;;;;;;5.38;2.80;;;11.80;99.90;;;;;;5034689;28;20036;-38
2024/02/12 11:15:27;;;;;;;10.75;2.85;;;11.70;99.90;;;;;;5035047;28;20025;-39
2024/02/12 11:17:54;;;;;;;4.85;2.47;;;11.70;99.90;;;;;;5034948;28;20382;-38
2024/02/12 11:20:23;;;;;;;8.23;2.35;;;11.70;99.90;;;;;;5034931;28;20029;-38
2024/02/12 11:22:49;;;;;;;9.55;2.22;;;11.70;99.90;;;;;;5037520;28;20044;-37
2024/02/12 11:25:16;;;;;;;7.68;1.83;;;11.70;99.90;;;;;;5052911;28;20139;-56
2024/02/12 11:27:58;;;;;;;6.82;2.35;;;11.70;99.90;;;;;;5046744;28;20032;-39
2024/02/12 11:30:24;;;;;;;4.13;1.65;;;11.60;99.90;;;;;;5054345;28;20481;-51
2024/02/12 11:32:50;;;;;;;3.33;1.70;;;11.50;99.90;;;;;;5054385;28;20040;-38
2024/02/12 11:35:18;;;;;;;4.13;1.45;;;11.30;99.90;;;;;;5054523;28;20022;-37
2024/02/12 11:37:56;;;;;;;5.43;1.42;;;11.10;99.90;;;;;;5037653;28;20028;-38
2024/02/12 11:40:22;;;;;;;7.47;2.00;;;11.30;99.90;;;;;;5043239;28;20496;-37
2024/02/12 11:42:52;;;;;;;4.85;2.45;;;11.30;99.90;;;;;;5054166;28;20025;-42
2024/02/12 11:45:18;;;;;;;6.18;3.08;;;11.50;99.90;;;;;;5054050;28;20033;-38
2024/02/12 11:47:47;;;;;;;10.82;2.15;;;11.70;99.90;;;;;;5053887;28;20112;-38
2024/02/12 11:50:19;;;;;;;9.63;2.35;;;11.80;99.90;;;;;;5053023;28;20389;-41
2024/02/12 11:52:45;;;;;;;2.97;1.10;;;11.80;99.90;;;;;;5053292;28;20102;-39
2024/02/12 11:55:12;;;;;;;8.07;1.90;;;11.70;99.90;;;;;;5052625;28;20013;-40
2024/02/12 11:57:38;;;;;;;2.22;1.15;;;11.30;99.90;;;;;;5054058;28;20021;-39
2024/02/12 12:00:06;;;;;;;4.22;1.90;;;10.90;99.90;;;;;;5053732;28;20104;-38
2024/02/12 12:02:32;;;;;;;;;;;10.70;99.90;;;;;;5052885;28;20087;-38
2024/02/12 12:04:59;;;;;;;2.45;1.02;;;10.80;99.90;;;;;;5053989;28;19906;-41
2024/02/12 12:07:29;;;;;;;5.88;1.63;;;10.60;99.90;;;;;;5053686;28;20050;-38
2024/02/12 12:10:04;;;;;;;2.40;1.10;;;10.60;99.90;;;;;;5052612;28;20052;-39
2024/02/12 12:12:30;;;;;;;3.63;1.08;;;10.50;99.90;;;;;;5053641;28;20021;-44
2024/02/12 12:15:07;;;;;;;4.07;1.10;;;10.40;99.90;;;;;;5053855;28;20045;-43
2024/02/12 12:17:41;;;;;;;5.68;1.77;;;10.40;99.90;;;;;;5039151;28;20423;-38
2024/02/12 12:20:15;;;;;;;4.82;1.55;;;10.50;99.90;;;;;;5033637;28;20021;-40
2024/02/12 12:22:44;;;;;;;4.32;1.42;;;10.70;99.90;;;;;;5033216;28;20104;-38
2024/02/12 12:25:12;;;;;;;3.95;1.00;;;10.70;99.90;;;;;;5050888;28;20021;-37
2024/02/12 12:27:38;;;;;;;1.70;0.98;;;10.70;99.90;;;;;;5035485;28;20516;-42
2024/02/12 12:30:15;;;;;;;5.72;1.60;;;10.70;99.90;;;;;;5049347;28;20124;-40
2024/02/12 12:32:41;;;;;;;1.52;0.90;;;10.70;99.90;;;;;;5041916;28;20025;-66
2024/02/12 12:35:08;;;;;;;8.00;1.52;;;10.60;99.90;;;;;;5053463;28;20025;-37
2024/02/12 12:37:38;;;;;;;4.53;1.00;;;10.70;99.90;;;;;;5037810;28;20021;-51
2024/02/12 12:40:21;;;;;;;2.83;0.85;;;10.60;99.90;;;;;;5033493;28;20515;-41
2024/02/12 12:42:49;;;;;;;3.13;1.13;;;10.50;99.90;;;;;;5033207;28;20037;-43
2024/02/12 12:45:16;;;;;;;6.65;1.13;;;10.50;99.90;;;;;;5046272;28;20555;-55
2024/02/12 12:47:42;;;;;;;3.80;0.60;;;10.50;99.90;;;;;;5047814;28;20033;-39
2024/02/12 12:50:09;;;;;;;6.70;1.10;;;10.50;99.90;;;;;;5036104;28;20107;-39
2024/02/12 12:52:36;;;;;;;5.78;0.80;;;10.40;99.90;;;;;;5041920;28;20113;-40
2024/02/12 12:55:07;;;;;;;11.60;2.20;;;10.30;99.90;;;;;;5052825;28;20032;-39
2024/02/12 12:57:34;;;;;;;3.67;0.68;;;10.30;99.90;;;;;;5036234;28;20385;-39
2024/02/12 13:00:05;;;;;;;2.90;1.10;;;10.20;99.90;;;;;;5033176;28;20026;-39
2024/02/12 13:02:34;;;;;;;5.85;0.93;;;10.30;99.90;;;;;;5033303;28;20052;-38